Time;durP1;ratioP1;P1;durP2;ratioP2;P2;SDS_P1;SDS_P2;PMS_P1;PMS_P2;Temp;Humidity;BMP_temperature;BMP_pressure;BME280_temperature;BME280_humidity;BME280_pressure;Samples;Min_cycle;Max_cycle;Signal;HPM_P1;HPM_P2
2022/10/30 00:01:48;;;;;;;;;21.00;12.25;;;;;18.54;64.63;101272.97;4840764;29;46021;-80
2022/10/30 00:04:13;;;;;;;;;13.50;13.00;;;;;18.54;64.96;101278.38;4837059;29;45362;-81
2022/10/30 00:06:38;;;;;;;;;15.75;12.75;;;;;18.48;64.31;101275.06;4834592;29;45234;-80
2022/10/30 00:09:04;;;;;;;;;16.00;11.75;;;;;18.48;64.60;101280.47;4839288;29;45221;-81
2022/10/30 00:11:29;;;;;;;;;14.50;13.75;;;;;18.49;64.69;101287.63;4840615;29;45592;-80
2022/10/30 00:13:54;;;;;;;;;14.00;14.00;;;;;18.41;64.60;101279.09;4838813;29;45309;-80
2022/10/30 00:16:20;;;;;;;;;16.25;13.50;;;;;18.43;64.54;101287.13;4829923;29;45293;-80
2022/10/30 00:18:45;;;;;;;;;16.75;16.25;;;;;18.44;64.65;101288.84;4839260;29;45351;-81
2022/10/30 00:21:14;;;;;;;;;16.50;13.25;;;;;18.43;65.45;101281.72;4827687;29;45295;-80
2022/10/30 00:23:51;;;;;;;;;17.00;14.75;;;;;18.38;64.80;101264.88;4828216;29;45601;-81
2022/10/30 00:26:18;;;;;;;;;15.25;13.50;;;;;18.29;64.90;101259.03;4840888;29;45317;-81
2022/10/30 00:28:44;;;;;;;;;20.50;17.00;;;;;18.28;64.89;101268.09;4835560;29;45476;-81
2022/10/30 00:31:09;;;;;;;;;14.25;12.75;;;;;18.33;65.12;101274.09;4843374;29;46223;-80
2022/10/30 00:33:35;;;;;;;;;15.75;14.25;;;;;18.35;65.28;101279.44;4842794;29;45247;-81
2022/10/30 00:36:00;;;;;;;;;18.50;15.25;;;;;18.31;65.30;101262.53;4831578;29;45254;-80
2022/10/30 00:38:26;;;;;;;;;18.50;17.00;;;;;18.34;65.01;101274.97;4853831;29;45238;-80
2022/10/30 00:40:51;;;;;;;;;19.25;15.25;;;;;18.31;65.56;101284.13;4828082;29;45359;-80
2022/10/30 00:43:34;;;;;;;;;14.25;13.00;;;;;18.32;65.47;101288.56;4844516;29;45250;-80
2022/10/30 00:46:15;;;;;;;;;19.25;15.25;;;;;18.23;65.39;101263.91;4830799;29;45286;-81
2022/10/30 00:48:42;;;;;;;;;17.75;15.25;;;;;18.19;65.23;101252.38;4830837;29;45308;-80
2022/10/30 00:51:11;;;;;;;;;19.25;17.25;;;;;18.30;65.22;101271.56;4835589;29;45347;-80
2022/10/30 00:53:38;;;;;;;;;14.00;13.75;;;;;18.29;64.92;101287.88;4836566;29;45473;-80
2022/10/30 00:56:06;;;;;;;;;18.50;15.50;;;;;18.30;65.07;101290.50;4838379;29;45287;-80
2022/10/30 00:58:38;;;;;;;;;18.75;18.00;;;;;18.30;65.29;101286.94;4834269;29;45215;-78
2022/10/30 01:01:10;;;;;;;;;18.25;13.75;;;;;18.34;65.12;101291.19;4841321;29;45387;-78
2022/10/30 01:03:38;;;;;;;;;18.25;15.25;;;;;18.25;64.85;101286.31;4834451;29;45545;-78
2022/10/30 01:06:07;;;;;;;;;18.50;17.50;;;;;18.33;65.17;101301.13;4840188;29;45407;-77
2022/10/30 01:08:33;;;;;;;;;19.75;15.75;;;;;18.32;64.86;101296.66;4843269;29;45265;-77
2022/10/30 01:11:02;;;;;;;;;15.00;13.50;;;;;18.30;65.39;101297.72;4841330;29;45435;-78
2022/10/30 01:13:29;;;;;;;;;15.75;13.00;;;;;18.25;64.90;101291.72;4837660;29;45643;-78
2022/10/30 01:16:17;;;;;;;;;14.50;14.00;;;;;18.31;64.78;101300.34;4831100;29;45389;-78
2022/10/30 01:19:03;;;;;;;;;17.50;15.00;;;;;18.32;65.07;101299.38;4819827;29;45377;-78
2022/10/30 01:21:47;;;;;;;;;14.75;13.25;;;;;18.32;64.90;101298.50;4830263;29;46034;-78
2022/10/30 01:24:25;;;;;;;;;16.00;14.75;;;;;18.33;65.19;101309.25;4831950;29;45270;-78
2022/10/30 01:27:06;;;;;;;;;13.75;11.00;;;;;18.33;64.89;101306.53;4833635;29;45303;-78
2022/10/30 01:30:11;;;;;;;;;15.75;14.25;;;;;18.23;64.84;101282.84;4819073;29;45266;-77
2022/10/30 01:32:52;;;;;;;;;15.50;12.25;;;;;18.30;64.94;101303.13;4823415;29;45359;-77
2022/10/30 01:35:35;;;;;;;;;13.25;12.50;;;;;18.28;64.78;101308.63;4848334;29;45784;-77
2022/10/30 01:38:03;;;;;;;;;18.25;14.00;;;;;18.28;64.94;101307.75;4843523;29;45440;-77
2022/10/30 01:40:29;;;;;;;;;14.50;12.75;;;;;18.19;65.15;101300.16;4841905;29;46240;-77
2022/10/30 01:42:58;;;;;;;;;14.50;13.50;;;;;18.24;64.90;101300.78;4828757;29;48327;-77
2022/10/30 01:45:48;;;;;;;;;16.00;14.50;;;;;18.18;65.03;101293.88;4845057;29;45842;-77
2022/10/30 01:48:19;;;;;;;;;14.00;12.50;;;;;18.19;65.24;101298.31;4819739;29;45333;-77
2022/10/30 01:50:54;;;;;;;;;16.75;15.50;;;;;18.16;65.29;101290.41;4843612;29;45223;-77
2022/10/30 01:53:51;;;;;;;;;17.50;14.50;;;;;18.13;65.16;101294.13;4853064;29;47425;-77
2022/10/30 01:56:17;;;;;;;;;18.00;14.75;;;;;18.15;65.34;101296.75;4823162;29;45343;-78
2022/10/30 01:58:54;;;;;;;;;14.75;14.00;;;;;18.14;65.38;101290.50;4832691;29;45211;-78
2022/10/30 02:01:21;;;;;;;;;19.50;16.75;;;;;18.12;65.32;101291.50;4851037;29;45448;-81
2022/10/30 02:03:46;;;;;;;;;18.00;14.75;;;;;18.09;65.52;101279.06;4830604;29;45492;-80
2022/10/30 02:06:12;;;;;;;;;14.25;14.25;;;;;18.06;64.89;101268.44;4839132;29;45399;-81
2022/10/30 02:08:37;;;;;;;;;18.50;16.75;;;;;18.11;65.34;101266.34;4842766;29;45283;-81
2022/10/30 02:11:04;;;;;;;;;16.50;16.25;;;;;18.12;65.12;101268.06;4839476;29;45282;-81
2022/10/30 02:13:30;;;;;;;;;15.75;15.75;;;;;18.12;65.66;101268.06;4850929;29;47079;-80
2022/10/30 02:15:57;;;;;;;;;18.50;15.25;;;;;18.07;65.75;101269.28;4821556;29;45512;-80
2022/10/30 02:18:23;;;;;;;;;18.25;16.50;;;;;18.06;65.68;101264.84;4842456;29;45495;-80
2022/10/30 02:20:49;;;;;;;;;16.25;15.00;;;;;18.06;65.54;101260.31;4830381;29;45352;-80
2022/10/30 02:23:17;;;;;;;;;15.25;15.00;;;;;18.04;65.46;101264.06;4829735;29;45503;-81
2022/10/30 02:25:43;;;;;;;;;16.25;13.25;;;;;18.01;65.82;101259.72;4842533;29;45878;-81
2022/10/30 02:28:09;;;;;;;;;17.75;16.50;;;;;18.01;65.43;101261.50;4818728;29;45370;-80
2022/10/30 02:30:34;;;;;;;;;22.00;18.25;;;;;18.01;65.58;101259.72;4828142;29;45544;-80
2022/10/30 02:32:59;;;;;;;;;12.25;11.75;;;;;18.03;65.87;101257.78;4838926;29;45551;-81
2022/10/30 02:35:25;;;;;;;;;18.25;14.75;;;;;18.01;65.86;101259.72;4839114;29;45343;-80
2022/10/30 02:37:50;;;;;;;;;12.00;10.75;;;;;17.96;65.71;101242.88;4849438;29;46147;-81
2022/10/30 02:40:15;;;;;;;;;13.25;13.25;;;;;18.06;65.42;101257.63;4841913;29;45329;-81
2022/10/30 02:42:41;;;;;;;;;13.50;12.50;;;;;18.05;66.20;101255.88;4835626;29;45308;-80
2022/10/30 02:45:07;;;;;;;;;13.25;12.00;;;;;18.01;65.55;101258.81;4835535;29;45266;-80
2022/10/30 02:47:32;;;;;;;;;14.00;12.75;;;;;18.02;65.52;101261.44;4842163;29;45247;-80
2022/10/30 02:49:58;;;;;;;;;16.00;16.00;;;;;18.05;65.63;101260.41;4839109;29;45362;-80
2022/10/30 02:52:23;;;;;;;;;14.00;12.50;;;;;17.99;66.15;101248.09;4842656;29;45326;-80
2022/10/30 02:54:48;;;;;;;;;18.00;16.00;;;;;17.96;65.90;101246.44;4829250;29;45389;-81
2022/10/30 02:57:14;;;;;;;;;13.50;11.50;;;;;17.94;66.24;101244.78;4842199;29;45235;-81
2022/10/30 02:59:39;;;;;;;;;13.00;12.00;;;;;17.95;66.25;101243.84;4837370;29;46992;-80
2022/10/30 03:02:04;;;;;;;;;16.25;14.50;;;;;17.95;66.10;101247.41;4842017;29;45512;-80
2022/10/30 03:04:29;;;;;;;;;13.00;12.75;;;;;17.95;66.08;101252.78;4838478;29;45272;-80
2022/10/30 03:06:55;;;;;;;;;14.50;14.00;;;;;17.93;66.25;101245.75;4832174;29;45313;-80
2022/10/30 03:09:20;;;;;;;;;16.00;13.00;;;;;17.94;66.38;101248.38;4829362;29;45402;-80
2022/10/30 03:11:45;;;;;;;;;20.75;15.75;;;;;17.94;66.20;101244.78;4856154;29;47615;-80
2022/10/30 03:14:11;;;;;;;;;12.00;10.25;;;;;17.83;66.14;101228.28;4836043;29;45369;-80
2022/10/30 03:16:36;;;;;;;;;12.00;12.00;;;;;17.80;66.36;101234.72;4831836;29;45398;-81
2022/10/30 03:19:03;;;;;;;;;15.75;14.50;;;;;17.90;66.35;101254.03;4839040;29;46052;-80
2022/10/30 03:21:28;;;;;;;;;16.25;14.00;;;;;17.88;66.55;101247.84;4828687;29;46389;-80
2022/10/30 03:23:54;;;;;;;;;14.50;12.50;;;;;17.86;66.24;101242.47;4830213;29;45173;-80
2022/10/30 03:26:20;;;;;;;;;13.75;13.75;;;;;17.86;66.00;101241.59;4830887;29;45456;-80
2022/10/30 03:28:46;;;;;;;;;18.00;13.50;;;;;17.84;66.00;101238.13;4831100;29;45325;-80
2022/10/30 03:31:14;;;;;;;;;13.00;13.00;;;;;17.82;66.38;101237.31;4828874;29;45253;-81
2022/10/30 03:33:40;;;;;;;;;15.25;13.75;;;;;17.78;66.54;101229.38;4850552;29;45281;-80
2022/10/30 03:36:12;;;;;;;;;15.50;14.00;;;;;17.71;66.52;101214.50;4842483;29;45314;-80
2022/10/30 03:38:37;;;;;;;;;12.25;12.25;;;;;17.75;66.67;101218.75;4838280;29;45340;-81
2022/10/30 03:41:04;;;;;;;;;14.50;13.50;;;;;17.71;66.57;101214.50;4834752;29;45366;-80
2022/10/30 03:43:29;;;;;;;;;18.25;15.25;;;;;17.68;66.41;101208.41;4830240;29;45341;-80
2022/10/30 03:45:55;;;;;;;;;15.25;14.75;;;;;17.77;66.39;101224.06;4831965;29;45482;-81
2022/10/30 03:48:23;;;;;;;;;17.75;15.25;;;;;17.77;66.56;101219.56;4838073;29;45303;-80
2022/10/30 03:50:50;;;;;;;;;14.75;13.00;;;;;17.80;66.60;101214.94;4829806;29;45343;-81
2022/10/30 03:53:16;;;;;;;;;14.50;14.50;;;;;17.73;66.83;101203.63;4837604;29;45292;-80
2022/10/30 03:55:41;;;;;;;;;15.00;13.00;;;;;17.74;66.33;101218.84;4843110;29;45319;-81
2022/10/30 03:58:07;;;;;;;;;15.50;12.00;;;;;17.79;66.58;101227.56;4839913;29;45567;-81
2022/10/30 04:00:33;;;;;;;;;16.75;14.00;;;;;17.81;66.83;101224.78;4834474;29;45356;-80
2022/10/30 04:02:59;;;;;;;;;15.50;12.75;;;;;17.70;66.21;101210.03;4837276;29;45355;-80
2022/10/30 04:05:25;;;;;;;;;14.00;11.50;;;;;17.76;66.57;101200.75;4840995;29;45279;-80
2022/10/30 04:07:56;;;;;;;;;16.50;14.00;;;;;17.74;66.41;101200.84;4838757;29;45409;-80
2022/10/30 04:10:21;;;;;;;;;15.50;14.25;;;;;17.81;66.51;101209.47;4831934;29;45384;-80
2022/10/30 04:12:47;;;;;;;;;13.50;13.00;;;;;17.81;66.59;101208.56;4852149;29;45349;-80
2022/10/30 04:15:12;;;;;;;;;9.75;8.25;;;;;17.80;66.52;101206.84;4854927;29;45317;-81
2022/10/30 04:17:37;;;;;;;;;14.50;14.00;;;;;17.86;66.36;101219.97;4842312;29;45341;-81
2022/10/30 04:20:03;;;;;;;;;16.50;15.25;;;;;17.72;66.28;101202.72;4861103;29;48000;-80
2022/10/30 04:22:29;;;;;;;;;15.25;13.50;;;;;17.81;66.05;101216.66;4832775;29;45483;-81
2022/10/30 04:24:54;;;;;;;;;15.00;15.00;;;;;17.82;66.44;101222.00;4835670;29;45338;-81
2022/10/30 04:27:19;;;;;;;;;15.50;12.75;;;;;17.74;66.22;101203.53;4836575;29;45530;-81
2022/10/30 04:29:45;;;;;;;;;22.75;19.25;;;;;17.70;66.31;101199.25;4832113;29;45282;-81
2022/10/30 04:32:11;;;;;;;;;20.75;19.25;;;;;17.77;66.49;101200.66;4843236;29;45317;-80
2022/10/30 04:34:38;;;;;;;;;16.25;15.00;;;;;17.66;66.03;101177.88;4848276;29;45838;-80
2022/10/30 04:37:06;;;;;;;;;19.75;14.75;;;;;17.77;66.70;101195.28;4843978;29;45523;-81
2022/10/30 04:39:32;;;;;;;;;15.25;14.25;;;;;17.72;66.20;101188.34;4852319;29;46076;-82
2022/10/30 04:41:57;;;;;;;;;18.50;16.00;;;;;17.75;66.49;101188.19;4847690;29;45350;-81
2022/10/30 04:44:23;;;;;;;;;14.25;12.50;;;;;17.69;66.27;101169.63;4849034;29;45235;-82
2022/10/30 04:46:48;;;;;;;;;17.75;15.00;;;;;17.78;66.46;101198.81;4852686;29;46327;-82
2022/10/30 04:49:14;;;;;;;;;15.00;14.00;;;;;17.77;66.26;101208.75;4852399;29;46022;-82
2022/10/30 04:51:39;;;;;;;;;20.00;17.75;;;;;17.75;66.31;101199.00;4852611;29;45313;-82
2022/10/30 04:54:04;;;;;;;;;17.25;14.75;;;;;17.73;66.47;101188.28;4841563;29;45562;-81
2022/10/30 04:56:31;;;;;;;;;14.50;12.75;;;;;17.74;66.18;101199.94;4852629;29;45458;-81
2022/10/30 04:58:57;;;;;;;;;13.75;12.00;;;;;17.63;66.16;101191.59;4839362;29;46167;-81
2022/10/30 05:01:22;;;;;;;;;15.50;14.75;;;;;17.69;66.03;101200.22;4852605;29;45308;-81
2022/10/30 05:03:48;;;;;;;;;14.50;13.00;;;;;17.61;66.50;101180.88;4852464;29;45223;-82
2022/10/30 05:06:26;;;;;;;;;19.00;15.50;;;;;17.65;66.33;101192.38;4867107;29;45413;-82
2022/10/30 05:08:51;;;;;;;;;13.75;12.50;;;;;17.66;66.04;101194.09;4851289;29;47439;-81
2022/10/30 05:11:17;;;;;;;;;19.00;14.75;;;;;17.69;65.96;101200.22;4852345;29;45273;-81
2022/10/30 05:13:42;;;;;;;;;13.50;12.00;;;;;17.66;66.41;101199.47;4866460;29;45400;-78
2022/10/30 05:16:08;;;;;;;;;17.00;15.00;;;;;17.51;66.20;101179.63;4852599;29;45292;-77
2022/10/30 05:18:33;;;;;;;;;13.50;11.75;;;;;17.63;66.35;101194.28;4866498;29;47939;-77
2022/10/30 05:20:58;;;;;;;;;17.00;14.75;;;;;17.60;66.56;101190.78;4841428;29;45412;-77
2022/10/30 05:23:24;;;;;;;;;15.00;14.00;;;;;17.58;66.17;101187.28;4834986;29;45369;-77
2022/10/30 05:25:49;;;;;;;;;14.50;12.25;;;;;17.56;66.00;101180.25;4841907;29;45446;-77
2022/10/30 05:28:15;;;;;;;;;13.00;10.75;;;;;17.61;66.41;101188.97;4831703;29;45865;-77
2022/10/30 05:30:40;;;;;;;;;13.50;12.50;;;;;17.58;66.07;101183.72;4839276;29;45452;-77
2022/10/30 05:33:09;;;;;;;;;13.75;13.25;;;;;17.59;66.44;101180.94;4837017;29;45279;-77
2022/10/30 05:35:35;;;;;;;;;13.75;13.00;;;;;17.59;66.71;101171.94;4838438;29;45324;-77
2022/10/30 05:38:03;;;;;;;;;14.75;14.75;;;;;17.58;66.20;101168.41;4843056;29;46582;-77
2022/10/30 05:40:28;;;;;;;;;13.75;11.75;;;;;17.59;66.20;101174.66;4829917;29;45377;-77
2022/10/30 05:42:53;;;;;;;;;13.50;12.50;;;;;17.55;66.62;101162.31;4829812;29;45324;-77
2022/10/30 05:45:19;;;;;;;;;13.25;12.00;;;;;17.58;66.34;101184.59;4831117;29;45327;-77
2022/10/30 05:47:54;;;;;;;;;14.25;12.25;;;;;17.58;66.17;101192.69;4857149;29;47224;-77
2022/10/30 05:50:19;;;;;;;;;14.50;14.00;;;;;17.56;66.63;101196.44;4840602;29;45575;-77
2022/10/30 05:52:44;;;;;;;;;15.75;13.25;;;;;17.53;66.47;101193.91;4840353;29;45459;-77
2022/10/30 05:55:10;;;;;;;;;13.00;13.00;;;;;17.51;66.46;101185.03;4842762;29;45396;-77
2022/10/30 05:57:35;;;;;;;;;12.75;12.75;;;;;17.46;66.43;101173.59;4851902;29;47899;-77
2022/10/30 06:00:00;;;;;;;;;16.25;13.50;;;;;17.54;66.24;101179.44;4842643;29;45275;-77
2022/10/30 06:02:26;;;;;;;;;16.75;14.25;;;;;17.52;66.33;101174.13;4818285;29;45318;-77
2022/10/30 06:04:51;;;;;;;;;14.50;13.00;;;;;17.52;66.66;101167.84;4842873;29;45685;-77
2022/10/30 06:07:16;;;;;;;;;12.00;11.50;;;;;17.55;66.50;101176.66;4836328;29;45316;-77
2022/10/30 06:09:42;;;;;;;;;10.25;9.75;;;;;17.52;66.49;101168.72;4846355;29;45474;-77
2022/10/30 06:12:08;;;;;;;;;16.00;14.00;;;;;17.49;66.61;101168.91;4831255;29;45283;-77
2022/10/30 06:14:33;;;;;;;;;11.75;11.75;;;;;17.52;66.75;101174.13;4835773;29;45281;-77
2022/10/30 06:16:58;;;;;;;;;14.00;13.75;;;;;17.53;66.72;101183.09;4836571;29;45459;-77
2022/10/30 06:19:24;;;;;;;;;12.25;12.00;;;;;17.52;67.02;101173.25;4836215;29;45587;-77
2022/10/30 06:21:49;;;;;;;;;9.50;9.50;;;;;17.50;66.76;101167.06;4842281;29;49461;-77
2022/10/30 06:24:14;;;;;;;;;12.75;12.75;;;;;17.50;66.62;101172.47;4829984;29;45439;-77
2022/10/30 06:26:39;;;;;;;;;17.75;13.50;;;;;17.54;66.73;101179.44;4833893;29;46011;-77
2022/10/30 06:29:05;;;;;;;;;15.75;12.50;;;;;17.47;66.63;101170.81;4862799;29;45290;-77
2022/10/30 06:31:30;;;;;;;;;13.25;12.25;;;;;17.50;66.82;101176.03;4830257;29;45994;-77
2022/10/30 06:33:55;;;;;;;;;14.25;12.00;;;;;17.57;66.88;101190.06;4839817;29;45434;-77
2022/10/30 06:36:21;;;;;;;;;12.00;12.00;;;;;17.57;66.78;101184.66;4844227;29;46032;-77
2022/10/30 06:38:46;;;;;;;;;14.25;10.00;;;;;17.54;66.85;101190.22;4829307;29;45323;-77
2022/10/30 06:41:12;;;;;;;;;15.00;12.50;;;;;17.49;66.60;101187.81;4833778;29;45470;-77
2022/10/30 06:43:37;;;;;;;;;13.75;11.75;;;;;17.40;66.82;101178.34;4830130;29;45488;-77
2022/10/30 06:46:03;;;;;;;;;12.50;12.00;;;;;17.50;66.34;101203.03;4839862;29;46212;-77
2022/10/30 06:48:28;;;;;;;;;15.00;14.50;;;;;17.39;66.57;101190.13;4840344;29;45275;-77
2022/10/30 06:50:55;;;;;;;;;13.75;11.25;;;;;17.47;66.42;101205.03;4833370;29;45408;-77
2022/10/30 06:53:21;;;;;;;;;14.50;11.50;;;;;17.40;66.82;101205.34;4838295;29;45379;-77
2022/10/30 06:56:05;;;;;;;;;13.25;12.50;;;;;17.40;67.01;101208.03;4834027;29;45582;-81
2022/10/30 06:58:30;;;;;;;;;11.50;11.50;;;;;17.32;66.89;101190.53;4829425;29;45352;-82
2022/10/30 07:00:58;;;;;;;;;11.50;11.00;;;;;17.40;66.88;101205.34;4841342;29;45419;-82
2022/10/30 07:03:24;;;;;;;;;17.75;15.75;;;;;17.41;66.76;101206.25;4856602;29;45332;-82
2022/10/30 07:05:50;;;;;;;;;12.50;11.50;;;;;17.31;66.62;101199.59;4837007;29;45929;-82
2022/10/30 07:08:16;;;;;;;;;13.25;13.25;;;;;17.38;66.98;101207.25;4835396;29;45507;-82
2022/10/30 07:10:41;;;;;;;;;14.00;13.25;;;;;17.37;67.18;101188.44;4828847;29;45269;-82
2022/10/30 07:13:07;;;;;;;;;12.25;11.50;;;;;17.39;66.70;101192.81;4835558;29;45291;-82
2022/10/30 07:15:32;;;;;;;;;14.25;12.50;;;;;17.38;66.97;101190.22;4836660;29;45367;-82
2022/10/30 07:18:01;;;;;;;;;13.75;13.75;;;;;17.38;67.00;101196.47;4835095;29;45359;-81
2022/10/30 07:20:29;;;;;;;;;15.00;12.75;;;;;17.42;66.45;101197.16;4841090;29;45483;-81
2022/10/30 07:22:54;;;;;;;;;13.50;13.00;;;;;17.42;66.93;101191.78;4827590;29;45455;-81
2022/10/30 07:25:20;;;;;;;;;13.00;13.00;;;;;17.42;67.01;101191.78;4842257;29;46148;-81
2022/10/30 07:27:47;;;;;;;;;11.50;10.00;;;;;17.35;66.51;101175.03;4845170;29;46019;-81
2022/10/30 07:30:15;;;;;;;;;12.75;12.25;;;;;17.45;66.80;101180.81;4828015;29;45316;-81
2022/10/30 07:32:41;;;;;;;;;16.00;13.00;;;;;17.39;66.91;101176.63;4824232;29;45504;-80
2022/10/30 07:35:08;;;;;;;;;15.50;13.75;;;;;17.44;66.56;101187.19;4838072;29;45393;-81
2022/10/30 07:37:33;;;;;;;;;15.75;12.25;;;;;17.44;67.13;101197.09;4834505;29;45262;-81
2022/10/30 07:39:58;;;;;;;;;14.00;12.00;;;;;17.40;66.59;101208.03;4854346;29;45573;-80
2022/10/30 07:42:24;;;;;;;;;13.25;12.25;;;;;17.41;66.53;101206.25;4834800;29;45362;-81
2022/10/30 07:44:49;;;;;;;;;15.25;14.75;;;;;17.30;66.77;101187.03;4845970;29;46284;-81
2022/10/30 07:47:14;;;;;;;;;15.50;15.00;;;;;17.38;67.05;101198.31;4847562;29;45289;-81
2022/10/30 07:49:40;;;;;;;;;14.00;11.75;;;;;17.36;67.23;101200.22;4839613;29;45268;-81
2022/10/30 07:52:05;;;;;;;;;13.75;13.25;;;;;17.27;66.66;101182.66;4847046;29;45916;-81
2022/10/30 07:54:31;;;;;;;;;14.00;13.00;;;;;17.34;66.62;101188.59;4836270;29;45253;-81
2022/10/30 07:56:57;;;;;;;;;14.50;12.25;;;;;17.32;66.88;101187.81;4858567;29;45299;-81
2022/10/30 07:59:23;;;;;;;;;12.50;11.50;;;;;17.23;66.87;101181.97;4847177;29;45450;-81
2022/10/30 08:01:49;;;;;;;;;14.75;13.50;;;;;17.23;66.53;101181.97;4846137;29;45797;-81
2022/10/30 08:04:17;;;;;;;;;18.50;14.50;;;;;17.36;66.66;101208.31;4848079;29;45300;-81
2022/10/30 08:06:43;;;;;;;;;14.75;13.00;;;;;17.21;66.77;101188.41;4834563;29;45273;-81
2022/10/30 08:09:11;;;;;;;;;15.00;14.25;;;;;17.22;67.09;101192.84;4825514;29;45442;-80
2022/10/30 08:11:39;;;;;;;;;11.25;10.25;;;;;17.08;66.89;101172.00;4840259;29;45447;-81
2022/10/30 08:14:05;;;;;;;;;13.00;12.00;;;;;17.22;66.81;101198.22;4837401;29;45390;-80
2022/10/30 08:16:31;;;;;;;;;11.00;11.00;;;;;17.37;66.41;101237.03;4841498;29;45427;-81
2022/10/30 08:18:56;;;;;;;;;15.00;14.25;;;;;17.28;66.59;101233.00;4827639;29;45419;-80
2022/10/30 08:21:22;;;;;;;;;15.00;12.00;;;;;17.29;66.86;101247.34;4822876;29;45515;-81
2022/10/30 08:23:50;;;;;;;;;13.25;12.75;;;;;17.28;66.77;101245.63;4831437;29;45454;-81
2022/10/30 08:26:15;;;;;;;;;13.50;12.75;;;;;17.33;66.82;101255.22;4835760;29;45684;-81
2022/10/30 08:28:41;;;;;;;;;12.75;11.75;;;;;17.22;66.75;101236.00;4848564;29;45853;-81
2022/10/30 08:31:06;;;;;;;;;16.00;12.50;;;;;17.15;66.83;101232.75;4827692;29;45244;-81
2022/10/30 08:33:32;;;;;;;;;12.50;11.50;;;;;17.29;66.90;101267.13;4853527;29;47963;-81
2022/10/30 08:35:58;;;;;;;;;14.00;11.50;;;;;17.31;66.73;101270.59;4829766;29;45407;-81
2022/10/30 08:38:25;;;;;;;;;14.00;14.00;;;;;17.31;67.07;101262.50;4850393;29;45359;-81
2022/10/30 08:40:51;;;;;;;;;14.50;13.75;;;;;17.21;67.15;101229.75;4825432;29;45428;-81
2022/10/30 08:43:16;;;;;;;;;13.75;12.00;;;;;17.27;67.11;101233.94;4836173;29;45333;-82
2022/10/30 08:45:41;;;;;;;;;16.00;14.00;;;;;17.38;66.66;101242.34;4826893;29;45463;-81
2022/10/30 08:48:10;;;;;;;;;17.50;15.25;;;;;17.46;66.44;101263.53;4836456;29;45353;-81
2022/10/30 08:50:36;;;;;;;;;15.75;13.75;;;;;17.40;66.38;101256.63;4857726;29;45289;-81
2022/10/30 08:53:06;;;;;;;;;18.50;14.75;;;;;17.57;66.83;101266.53;4840175;29;45614;-81
2022/10/30 08:55:33;;;;;;;;;15.50;15.50;;;;;17.39;66.37;101232.41;4841651;29;45353;-81
2022/10/30 08:57:59;;;;;;;;;8.25;6.25;;;;;17.59;66.59;101253.84;4852643;29;45295;-81
2022/10/30 09:00:25;;;;;;;;;14.50;13.00;;;;;17.47;66.46;101218.53;4834030;29;45511;-81
2022/10/30 09:02:50;;;;;;;;;14.00;13.25;;;;;17.66;66.78;101257.06;4838448;29;48246;-81
2022/10/30 09:05:16;;;;;;;;;14.00;13.25;;;;;17.66;66.41;101250.78;4831386;29;45285;-81
2022/10/30 09:07:42;;;;;;;;;15.50;12.75;;;;;17.52;66.24;101230.78;4830499;29;45269;-81
2022/10/30 09:10:07;;;;;;;;;15.75;14.25;;;;;17.71;66.67;101259.53;4830283;29;45287;-81
2022/10/30 09:12:34;;;;;;;;;14.25;13.75;;;;;17.73;66.11;101265.72;4832444;29;47514;-81
2022/10/30 09:14:59;;;;;;;;;15.75;13.75;;;;;17.73;66.41;101261.19;4838112;29;45574;-81
2022/10/30 09:17:24;;;;;;;;;15.75;13.50;;;;;17.63;66.03;101238.34;4835666;29;45335;-81
2022/10/30 09:19:50;;;;;;;;;14.00;14.00;;;;;17.58;66.05;101235.00;4845008;29;45388;-81
2022/10/30 09:22:15;;;;;;;;;19.75;16.75;;;;;17.66;65.93;101246.28;4829695;29;45660;-81
2022/10/30 09:24:40;;;;;;;;;14.00;11.25;;;;;17.60;65.86;101241.19;4833361;29;45315;-81
2022/10/30 09:27:06;;;;;;;;;11.25;9.75;;;;;17.74;66.08;101260.22;4846852;29;45448;-81
2022/10/30 09:29:32;;;;;;;;;14.75;11.25;;;;;17.87;65.88;101283.88;4828969;29;45454;-81
2022/10/30 09:31:58;;;;;;;;;11.50;11.50;;;;;17.67;65.36;101258.78;4830740;29;45297;-81
2022/10/30 09:34:23;;;;;;;;;10.50;10.50;;;;;17.74;65.70;101262.94;4829214;29;45289;-81
2022/10/30 09:36:49;;;;;;;;;9.50;9.50;;;;;17.92;65.12;101289.91;4831980;29;45497;-81
2022/10/30 09:39:14;;;;;;;;;11.50;10.00;;;;;17.85;64.91;101280.38;4844430;29;45660;-79
2022/10/30 09:42:01;;;;;;;;;12.25;12.00;;;;;17.93;65.59;101283.56;4827623;29;46085;-81
2022/10/30 09:44:44;;;;;;;;;13.50;11.00;;;;;17.94;65.36;101285.28;4817959;29;45500;-81
2022/10/30 09:47:49;;;;;;;;;14.50;13.00;;;;;17.97;65.40;101287.81;4828549;29;45578;-81
2022/10/30 09:50:39;;;;;;;;;11.25;8.50;;;;;17.99;65.28;101288.59;4828742;29;45524;-81
2022/10/30 09:53:16;;;;;;;;;15.50;12.00;;;;;18.03;65.08;101303.72;4829364;29;46411;-82
2022/10/30 09:55:57;;;;;;;;;16.25;13.75;;;;;18.05;65.55;101293.69;4829992;29;45580;-82
2022/10/30 09:58:22;;;;;;;;;10.50;10.50;;;;;18.08;65.04;101290.81;4847321;29;45665;-82
2022/10/30 10:00:54;;;;;;;;;12.50;10.75;;;;;18.05;65.50;101284.72;4829179;29;45361;-82
2022/10/30 10:03:50;;;;;;;;;11.50;10.00;;;;;18.15;64.69;101286.81;4829982;29;45454;-81
2022/10/30 10:06:18;;;;;;;;;10.75;10.50;;;;;18.06;64.65;101272.94;4826052;29;45468;-82
2022/10/30 10:09:08;;;;;;;;;13.50;11.00;;;;;18.02;65.16;101255.16;4825981;29;45371;-83
2022/10/30 10:11:41;;;;;;;;;10.25;9.25;;;;;18.09;64.30;101276.38;4825577;29;45487;-82
2022/10/30 10:14:33;;;;;;;;;10.50;9.75;;;;;18.20;64.63;101291.97;4846076;29;47337;-82
2022/10/30 10:17:03;;;;;;;;;12.75;10.00;;;;;18.31;64.99;101296.78;4820795;29;45442;-82
2022/10/30 10:19:37;;;;;;;;;11.00;10.00;;;;;18.29;64.52;101290.56;4831999;29;45347;-82
2022/10/30 10:22:19;;;;;;;;;12.75;9.50;;;;;18.35;64.81;101295.63;4829827;29;45314;-83
2022/10/30 10:24:46;;;;;;;;;18.75;11.00;;;;;18.39;64.45;101291.78;4844088;29;47261;-83
2022/10/30 10:27:50;;;;;;;;;11.50;9.50;;;;;18.44;64.52;101284.31;4833598;29;45450;-83
2022/10/30 10:30:20;;;;;;;;;7.00;6.50;;;;;18.26;64.46;101253.81;4822273;29;45302;-83
2022/10/30 10:33:27;;;;;;;;;9.25;7.00;;;;;18.39;64.07;101269.31;4842390;29;45401;-83
2022/10/30 10:36:08;;;;;;;;;10.00;10.00;;;;;18.41;63.43;101267.38;4856398;29;47720;-83
2022/10/30 10:39:02;;;;;;;;;11.00;9.00;;;;;18.41;63.44;101256.56;4830084;29;45449;-83
2022/10/30 10:41:46;;;;;;;;;12.75;9.75;;;;;18.54;63.33;101276.53;4829675;29;45286;-83
2022/10/30 10:44:20;;;;;;;;;4.00;4.00;;;;;18.44;63.00;101272.63;4829235;29;45376;-83
2022/10/30 10:47:29;;;;;;;;;8.50;6.00;;;;;18.60;63.41;101315.88;4829325;29;46331;-83
2022/10/30 10:50:26;;;;;;;;;8.00;7.75;;;;;18.53;63.15;101307.25;4816626;29;45487;-83
2022/10/30 10:53:04;;;;;;;;;9.50;9.00;;;;;18.50;63.33;101299.31;4851175;29;45325;-83
2022/10/30 10:55:36;;;;;;;;;13.00;9.50;;;;;18.55;63.03;101305.31;4841867;29;45482;-83
2022/10/30 10:58:14;;;;;;;;;7.50;7.50;;;;;18.49;62.66;101293.03;4819819;29;45352;-83
2022/10/30 11:00:41;;;;;;;;;8.75;6.75;;;;;18.61;62.90;101306.78;4828111;29;45559;-83
2022/10/30 11:03:25;;;;;;;;;10.25;8.25;;;;;18.60;62.85;101302.38;4845035;29;45426;-83
2022/10/30 11:06:04;;;;;;;;;7.50;7.50;;;;;18.75;63.27;101322.25;4840104;29;45373;-83
2022/10/30 11:08:31;;;;;;;;;10.00;8.25;;;;;18.79;63.07;101330.06;4829365;29;45230;-83
2022/10/30 11:11:02;;;;;;;;;7.50;6.50;;;;;18.86;62.49;101344.16;4828970;29;45284;-83
2022/10/30 11:13:33;;;;;;;;;7.00;7.00;;;;;18.81;62.63;101330.00;4831230;29;45292;-83
2022/10/30 11:16:14;;;;;;;;;10.00;7.00;;;;;18.91;62.85;101347.50;4841707;29;45430;-82
2022/10/30 11:18:42;;;;;;;;;10.75;9.50;;;;;18.81;62.74;101321.88;4843533;29;47513;-83